createdAt,value
2018-01-12T00:01:49.509Z,21.50
2018-01-12T00:04:16.265Z,20.90
2018-01-12T00:06:42.975Z,20.57
2018-01-12T00:09:09.662Z,20.33
2018-01-12T00:11:36.417Z,21.27
2018-01-12T00:14:03.107Z,21.90
2018-01-12T00:16:29.861Z,22.10
2018-01-12T00:18:56.552Z,22.87
2018-01-12T00:21:23.252Z,23.17
2018-01-12T00:23:49.989Z,21.23
2018-01-12T00:26:16.694Z,21.07
2018-01-12T00:28:43.722Z,22.77
2018-01-12T00:31:10.437Z,22.13
2018-01-12T00:33:37.163Z,21.50
2018-01-12T00:36:03.869Z,21.03
2018-01-12T00:38:31.636Z,22.87
2018-01-12T00:40:58.491Z,22.90
2018-01-12T00:43:25.301Z,22.87
2018-01-12T00:45:52.116Z,22.77
2018-01-12T00:48:18.835Z,23.37
2018-01-12T00:50:45.547Z,20.77
2018-01-12T00:53:12.238Z,23.70
2018-01-12T00:55:38.925Z,21.73
2018-01-12T00:58:05.643Z,22.90
2018-01-12T01:00:32.370Z,22.73
2018-01-12T01:02:59.075Z,22.30
2018-01-12T01:05:25.764Z,24.30
2018-01-12T01:07:52.494Z,21.03
2018-01-12T01:10:19.246Z,21.70
2018-01-12T01:12:45.934Z,22.20
2018-01-12T01:15:12.646Z,22.37
2018-01-12T01:17:39.361Z,25.00
2018-01-12T01:20:06.098Z,22.97
2018-01-12T01:22:32.809Z,23.40
2018-01-12T01:24:59.527Z,22.50
2018-01-12T01:27:26.268Z,23.77
2018-01-12T01:29:52.976Z,21.97
2018-01-12T01:32:19.649Z,21.87
2018-01-12T01:34:46.400Z,22.90
2018-01-12T01:37:13.096Z,22.47
2018-01-12T01:39:39.788Z,23.70
2018-01-12T01:42:06.512Z,22.60
2018-01-12T01:44:33.208Z,22.73
2018-01-12T01:46:59.977Z,22.50
2018-01-12T01:49:26.664Z,23.50
2018-01-12T01:51:53.361Z,22.73
2018-01-12T01:54:20.114Z,22.93
2018-01-12T01:56:46.825Z,22.83
2018-01-12T01:59:13.529Z,22.60
2018-01-12T02:01:40.373Z,23.80
2018-01-12T02:04:07.124Z,22.90
2018-01-12T02:06:33.860Z,23.40
2018-01-12T02:09:00.561Z,23.00
2018-01-12T02:11:27.314Z,23.13
2018-01-12T02:13:54.002Z,23.67
2018-01-12T02:16:20.713Z,21.50
2018-01-12T02:18:47.421Z,23.47
2018-01-12T02:21:14.119Z,22.63
2018-01-12T02:23:40.834Z,22.20
2018-01-12T02:26:07.543Z,22.00
2018-01-12T02:28:34.240Z,22.63
2018-01-12T02:31:00.952Z,22.00
2018-01-12T02:33:27.683Z,21.03
2018-01-12T02:35:54.397Z,24.60
2018-01-12T02:38:21.110Z,22.07
2018-01-12T02:40:47.833Z,21.70
2018-01-12T02:43:14.564Z,21.90
2018-01-12T02:45:41.278Z,22.10
2018-01-12T02:48:08.003Z,21.93
2018-01-12T02:50:35.445Z,22.17
2018-01-12T02:53:02.164Z,21.37
2018-01-12T02:55:28.873Z,21.80
2018-01-12T02:57:55.585Z,21.37
2018-01-12T03:00:22.536Z,22.23
2018-01-12T03:02:49.260Z,21.17
2018-01-12T03:05:16.039Z,21.80
2018-01-12T03:07:42.752Z,22.50
2018-01-12T03:10:09.449Z,21.67
2018-01-12T03:12:36.165Z,21.07
2018-01-12T03:15:02.881Z,20.97
2018-01-12T03:17:29.581Z,22.03
2018-01-12T03:19:56.390Z,21.00
2018-01-12T03:22:23.159Z,22.27
2018-01-12T03:24:49.884Z,21.87
2018-01-12T03:27:16.637Z,22.00
2018-01-12T03:29:43.359Z,22.13
2018-01-12T03:32:10.124Z,20.43
2018-01-12T03:34:36.869Z,21.63
2018-01-12T03:37:03.603Z,20.17
2018-01-12T03:39:30.303Z,21.07
2018-01-12T03:41:57.120Z,20.67
2018-01-12T03:44:23.815Z,21.97
2018-01-12T03:46:50.588Z,19.07
2018-01-12T03:49:17.329Z,18.40
2018-01-12T03:51:44.063Z,20.23
2018-01-12T03:54:10.809Z,21.07
2018-01-12T03:56:37.536Z,18.50
2018-01-12T03:59:04.292Z,19.57
2018-01-12T04:01:31.024Z,19.10
2018-01-12T04:03:57.794Z,18.97
2018-01-12T04:06:24.511Z,19.40
2018-01-12T04:08:51.204Z,19.40
2018-01-12T04:11:17.913Z,18.30
2018-01-12T04:13:44.644Z,19.37
2018-01-12T04:16:11.364Z,21.97
2018-01-12T04:18:38.097Z,20.47
2018-01-12T04:21:04.820Z,20.53
2018-01-12T04:23:31.541Z,21.80
2018-01-12T04:25:58.279Z,19.30
2018-01-12T04:28:25.010Z,19.80
2018-01-12T04:30:51.731Z,21.07
2018-01-12T04:33:18.481Z,19.27
2018-01-12T04:35:45.155Z,18.00
2018-01-12T04:38:11.853Z,19.27
2018-01-12T04:40:39.060Z,18.77
2018-01-12T04:43:05.820Z,19.17
2018-01-12T04:45:32.528Z,18.53
2018-01-12T04:47:59.310Z,18.17
2018-01-12T04:50:26.101Z,18.40
2018-01-12T04:52:52.814Z,18.50
2018-01-12T04:55:19.526Z,18.57
2018-01-12T04:57:46.235Z,18.27
2018-01-12T05:00:12.974Z,16.57
2018-01-12T05:02:39.716Z,18.80
2018-01-12T05:05:06.411Z,17.43
2018-01-12T05:07:33.115Z,18.37
2018-01-12T05:09:59.963Z,19.47
2018-01-12T05:12:26.691Z,18.80
2018-01-12T05:14:53.420Z,18.57
2018-01-12T05:17:20.208Z,18.73
2018-01-12T05:19:47.218Z,18.23
2018-01-12T05:22:13.966Z,18.67
2018-01-12T05:24:40.701Z,19.17
2018-01-12T05:27:07.497Z,18.50
2018-01-12T05:29:34.392Z,18.13
2018-01-12T05:32:02.410Z,20.27
2018-01-12T05:34:29.924Z,18.43
2018-01-12T05:36:56.647Z,19.50
2018-01-12T05:39:23.356Z,18.10
2018-01-12T05:41:50.145Z,17.23
2018-01-12T05:44:16.908Z,17.57
2018-01-12T05:46:43.669Z,17.07
2018-01-12T05:49:10.402Z,18.70
2018-01-12T05:51:37.133Z,18.77
2018-01-12T05:54:03.843Z,18.30
2018-01-12T05:56:30.623Z,16.97
2018-01-12T05:58:58.053Z,19.67
2018-01-12T06:01:30.653Z,20.20
2018-01-12T06:04:03.290Z,18.30
2018-01-12T06:06:30.009Z,19.07
2018-01-12T06:08:56.750Z,17.90
2018-01-12T06:11:23.463Z,17.73
2018-01-12T06:13:50.194Z,19.13
2018-01-12T06:16:16.941Z,18.67
2018-01-12T06:18:43.641Z,20.27
2018-01-12T06:21:10.460Z,19.37
2018-01-12T06:23:37.163Z,20.13
2018-01-12T06:26:04.753Z,20.30
2018-01-12T06:28:31.458Z,20.47
2018-01-12T06:30:58.168Z,19.77
2018-01-12T06:33:24.944Z,20.50
2018-01-12T06:35:51.626Z,21.20
2018-01-12T06:38:18.405Z,20.50
2018-01-12T06:40:45.131Z,20.97
2018-01-12T06:43:11.902Z,21.50
2018-01-12T06:45:38.589Z,21.07
2018-01-12T06:48:05.276Z,19.43
2018-01-12T06:50:32.061Z,20.50
2018-01-12T06:52:58.807Z,20.13
2018-01-12T06:55:25.563Z,21.73
2018-01-12T06:57:52.241Z,20.20
2018-01-12T07:00:18.982Z,21.10
2018-01-12T07:02:45.699Z,20.27
2018-01-12T07:05:12.441Z,20.20
2018-01-12T07:07:39.221Z,21.07
2018-01-12T07:10:06.033Z,20.93
2018-01-12T07:12:33.038Z,20.70
2018-01-12T07:14:59.791Z,20.90
2018-01-12T07:17:26.573Z,20.70
2018-01-12T07:19:53.506Z,20.20
2018-01-12T07:22:25.995Z,19.83
2018-01-12T07:24:52.829Z,21.17
2018-01-12T07:27:19.600Z,20.73
2018-01-12T07:29:46.332Z,20.57
2018-01-12T07:32:13.152Z,20.37
2018-01-12T07:34:39.883Z,20.17
2018-01-12T07:37:06.592Z,22.67
2018-01-12T07:39:33.342Z,21.10
2018-01-12T07:42:00.096Z,19.03
2018-01-12T07:44:26.864Z,21.27
2018-01-12T07:46:53.608Z,20.00
2018-01-12T07:49:20.455Z,20.00
2018-01-12T07:51:47.176Z,17.80
2018-01-12T07:54:13.899Z,19.10
2018-01-12T07:56:40.648Z,21.33
2018-01-12T07:59:07.357Z,20.33
2018-01-12T08:01:39.751Z,19.30
2018-01-12T08:04:06.495Z,18.57
2018-01-12T08:06:33.213Z,19.77
2018-01-12T08:08:59.905Z,19.23
2018-01-12T08:11:26.633Z,20.00
2018-01-12T08:13:53.340Z,19.17
2018-01-12T08:16:20.052Z,20.17
2018-01-12T08:18:46.737Z,17.83
2018-01-12T08:21:13.464Z,18.37
2018-01-12T08:23:40.182Z,20.40
2018-01-12T08:26:06.891Z,17.73
2018-01-12T08:28:33.629Z,18.70
2018-01-12T08:31:00.355Z,17.53
2018-01-12T08:33:27.089Z,19.63
2018-01-12T08:35:53.863Z,20.13
2018-01-12T08:38:20.563Z,18.80
2018-01-12T08:40:47.250Z,19.00
2018-01-12T08:43:13.959Z,18.20
2018-01-12T08:45:40.683Z,17.83
2018-01-12T08:48:07.389Z,17.90
2018-01-12T08:50:34.114Z,19.33
2018-01-12T08:53:00.861Z,16.60
2018-01-12T08:55:27.553Z,17.80
2018-01-12T08:57:54.303Z,18.10
2018-01-12T09:00:21.048Z,17.63
2018-01-12T09:02:47.769Z,18.70
2018-01-12T09:05:14.535Z,18.93
2018-01-12T09:07:41.224Z,19.20
2018-01-12T09:10:07.925Z,19.33
2018-01-12T09:12:34.654Z,17.57
2018-01-12T09:15:18.850Z,18.60
2018-01-12T09:17:47.302Z,18.63
2018-01-12T09:20:16.802Z,17.90
2018-01-12T09:22:45.260Z,17.40
2018-01-12T09:25:11.947Z,18.80
2018-01-12T09:27:38.662Z,18.23
2018-01-12T09:30:05.341Z,17.83
2018-01-12T09:32:32.186Z,18.90
2018-01-12T09:34:59.810Z,18.63
2018-01-12T09:37:26.541Z,17.10
2018-01-12T09:39:59.074Z,17.97
2018-01-12T09:42:25.795Z,19.10
2018-01-12T09:44:52.521Z,18.97
2018-01-12T09:47:22.003Z,19.10
2018-01-12T09:49:48.738Z,19.20
2018-01-12T09:52:15.431Z,19.07
2018-01-12T09:54:42.193Z,19.13
2018-01-12T09:57:08.940Z,18.73
2018-01-12T09:59:41.497Z,17.63
2018-01-12T10:02:08.241Z,20.27
2018-01-12T10:04:35.731Z,17.83
2018-01-12T10:07:08.292Z,18.10
2018-01-12T10:09:40.766Z,18.40
2018-01-12T10:12:07.494Z,18.43
2018-01-12T10:14:34.657Z,20.73
2018-01-12T10:17:01.383Z,18.50
2018-01-12T10:19:28.120Z,18.60
2018-01-12T10:21:54.832Z,19.30
2018-01-12T10:24:21.541Z,18.80
2018-01-12T10:26:48.269Z,18.43
2018-01-12T10:29:14.944Z,18.67
2018-01-12T10:31:47.591Z,18.87
2018-01-12T10:34:20.039Z,19.10
2018-01-12T10:36:52.502Z,16.40
2018-01-12T10:39:19.976Z,18.57
2018-01-12T10:41:52.420Z,17.57
2018-01-12T10:44:19.351Z,18.10
2018-01-12T10:46:46.041Z,16.93
2018-01-12T10:49:18.693Z,19.07
2018-01-12T10:51:45.407Z,17.60
2018-01-12T10:54:12.189Z,19.27
2018-01-12T10:56:38.973Z,18.70
2018-01-12T10:59:05.642Z,17.73
2018-01-12T11:01:32.417Z,18.70
2018-01-12T11:03:59.192Z,18.90
2018-01-12T11:06:25.957Z,19.23
2018-01-12T11:08:52.906Z,18.37
2018-01-12T11:11:19.608Z,19.23
2018-01-12T11:13:46.392Z,18.43
2018-01-12T11:16:13.150Z,18.23
2018-01-12T11:18:39.890Z,17.77
2018-01-12T11:21:06.598Z,20.17
2018-01-12T11:23:33.318Z,17.87
2018-01-12T11:26:00.023Z,17.17
2018-01-12T11:28:26.733Z,16.90
2018-01-12T11:30:53.426Z,18.90
2018-01-12T11:33:20.157Z,19.30
2018-01-12T11:35:46.849Z,18.67
2018-01-12T11:38:13.586Z,18.67
2018-01-12T11:40:40.337Z,18.50
2018-01-12T11:43:07.034Z,17.43
2018-01-12T11:45:33.741Z,17.70
2018-01-12T11:48:00.477Z,19.40
2018-01-12T11:50:27.158Z,18.17
2018-01-12T11:52:53.892Z,18.93
2018-01-12T11:55:21.025Z,19.23
2018-01-12T11:57:47.753Z,19.73
2018-01-12T12:00:14.487Z,19.40
2018-01-12T12:02:41.213Z,19.53
2018-01-12T12:05:07.942Z,17.80
2018-01-12T12:07:34.667Z,19.40
2018-01-12T12:10:01.387Z,19.40
2018-01-12T12:12:28.061Z,17.93
2018-01-12T12:14:54.779Z,18.33
2018-01-12T12:17:21.470Z,18.33
2018-01-12T12:19:48.173Z,19.00
2018-01-12T12:22:14.877Z,18.87
2018-01-12T12:24:41.655Z,18.40
2018-01-12T12:27:08.360Z,18.73
2018-01-12T12:29:35.061Z,18.03
2018-01-12T12:32:01.874Z,18.60
2018-01-12T12:34:29.914Z,19.80
2018-01-12T12:36:56.658Z,19.13
2018-01-12T12:39:23.353Z,18.30
2018-01-12T12:41:50.051Z,21.43
2018-01-12T12:44:16.789Z,18.87
2018-01-12T12:46:43.549Z,19.53
2018-01-12T12:49:10.312Z,21.43
2018-01-12T12:51:37.168Z,19.30
2018-01-12T12:54:03.977Z,18.03
2018-01-12T12:56:30.696Z,19.43
2018-01-12T12:58:57.464Z,20.00
2018-01-12T13:01:24.237Z,20.27
2018-01-12T13:03:50.922Z,20.30
2018-01-12T13:06:17.622Z,21.70
2018-01-12T13:08:44.374Z,18.20
2018-01-12T13:11:11.055Z,19.80
2018-01-12T13:13:37.760Z,18.30
2018-01-12T13:16:04.521Z,18.20
2018-01-12T13:18:31.264Z,19.80
2018-01-12T13:20:57.958Z,19.10
2018-01-12T13:23:25.012Z,18.67
2018-01-12T13:25:51.701Z,19.30
2018-01-12T13:28:18.422Z,18.10
2018-01-12T13:30:45.158Z,17.33
2018-01-12T13:33:11.868Z,18.07
2018-01-12T13:35:38.596Z,18.27
2018-01-12T13:38:05.659Z,17.93
2018-01-12T13:40:33.064Z,18.10
2018-01-12T13:42:59.773Z,19.93
2018-01-12T13:45:26.522Z,19.10
2018-01-12T13:47:53.226Z,19.50
2018-01-12T13:50:19.941Z,18.53
2018-01-12T13:52:46.725Z,19.17
2018-01-12T13:55:13.462Z,18.33
2018-01-12T13:57:40.202Z,18.30
2018-01-12T14:00:06.941Z,17.27
2018-01-12T14:02:33.675Z,19.27
2018-01-12T14:05:00.391Z,17.87
2018-01-12T14:07:27.213Z,20.40
2018-01-12T14:09:53.896Z,19.40
2018-01-12T14:12:20.719Z,17.07
2018-01-12T14:14:47.474Z,17.80
2018-01-12T14:17:14.230Z,17.80
2018-01-12T14:19:41.207Z,19.13
2018-01-12T14:22:07.910Z,16.87
2018-01-12T14:24:35.725Z,18.47
2018-01-12T14:27:02.418Z,18.00
2018-01-12T14:29:29.147Z,18.27
2018-01-12T14:31:55.853Z,18.20
2018-01-12T14:34:22.597Z,17.67
2018-01-12T14:36:49.345Z,18.23
2018-01-12T14:39:16.055Z,18.00
2018-01-12T14:41:42.753Z,16.43
2018-01-12T14:44:09.526Z,16.70
2018-01-12T14:46:36.229Z,15.87
2018-01-12T14:49:02.929Z,16.10
2018-01-12T14:51:29.649Z,14.80
2018-01-12T14:53:56.370Z,13.23
2018-01-12T14:56:23.101Z,14.10
2018-01-12T14:58:49.790Z,13.70
2018-01-12T15:01:16.531Z,14.77
2018-01-12T15:03:43.213Z,13.40
2018-01-12T15:06:09.915Z,13.13
2018-01-12T15:08:37.450Z,12.27
2018-01-12T15:11:04.248Z,12.00
2018-01-12T15:13:31.005Z,13.00
2018-01-12T15:15:57.701Z,12.83
2018-01-12T15:18:24.426Z,11.97
2018-01-12T15:20:51.213Z,13.20
2018-01-12T15:23:17.906Z,12.97
2018-01-12T15:25:44.659Z,12.70
2018-01-12T15:28:11.427Z,13.63
2018-01-12T15:30:38.181Z,13.07
2018-01-12T15:33:04.885Z,12.73
2018-01-12T15:35:31.627Z,13.93
2018-01-12T15:37:58.365Z,13.63
2018-01-12T15:40:25.107Z,14.37
2018-01-12T15:42:51.891Z,12.90
2018-01-12T15:45:18.577Z,13.50
2018-01-12T15:47:45.291Z,13.23
2018-01-12T15:50:12.011Z,13.20
2018-01-12T15:52:38.709Z,13.60
2018-01-12T15:55:05.447Z,14.10
2018-01-12T15:57:32.134Z,13.43
2018-01-12T15:59:58.860Z,14.00
2018-01-12T16:02:25.559Z,14.63
2018-01-12T16:04:52.294Z,13.60
2018-01-12T16:07:19.073Z,13.80
2018-01-12T16:09:46.162Z,13.63
2018-01-12T16:12:12.895Z,13.70
2018-01-12T16:14:39.671Z,15.37
2018-01-12T16:17:06.449Z,14.40
2018-01-12T16:19:33.193Z,15.20
2018-01-12T16:22:00.213Z,15.00
2018-01-12T16:24:27.112Z,14.30
2018-01-12T16:26:53.846Z,14.23
2018-01-12T16:29:22.499Z,15.10
2018-01-12T16:31:49.238Z,14.70
2018-01-12T16:34:15.956Z,16.40
2018-01-12T16:36:42.783Z,15.17
2018-01-12T16:39:12.990Z,15.13
2018-01-12T16:41:36.782Z,15.60
2018-01-12T16:44:03.643Z,15.10
2018-01-12T16:46:30.388Z,15.70
2018-01-12T16:48:57.088Z,14.00
2018-01-12T16:51:23.796Z,15.90
2018-01-12T16:53:50.568Z,15.13
2018-01-12T16:56:17.304Z,14.60
2018-01-12T16:58:44.020Z,15.20
2018-01-12T17:01:10.752Z,14.83
2018-01-12T17:03:37.697Z,16.17
2018-01-12T17:06:04.482Z,17.37
2018-01-12T17:08:31.292Z,16.00
2018-01-12T17:10:58.027Z,16.53
2018-01-12T17:13:24.817Z,15.77
2018-01-12T17:15:51.523Z,16.87
2018-01-12T17:18:18.276Z,17.90
2018-01-12T17:20:45.079Z,16.70
2018-01-12T17:23:11.913Z,16.50
2018-01-12T17:25:38.668Z,17.80
2018-01-12T17:28:05.404Z,16.37
2018-01-12T17:30:32.169Z,16.57
2018-01-12T17:32:59.048Z,17.23
2018-01-12T17:35:25.757Z,16.30
2018-01-12T17:37:52.507Z,15.60
2018-01-12T17:40:19.336Z,17.40
2018-01-12T17:42:46.181Z,15.30
2018-01-12T17:45:12.882Z,16.10
2018-01-12T17:47:39.642Z,16.77
2018-01-12T17:50:06.437Z,15.60
2018-01-12T17:52:33.172Z,16.60
2018-01-12T17:54:59.930Z,16.00
2018-01-12T17:57:26.880Z,15.80
2018-01-12T17:59:53.563Z,15.73
2018-01-12T18:02:20.275Z,16.00
2018-01-12T18:04:46.994Z,16.23
2018-01-12T18:07:13.721Z,15.80
2018-01-12T18:09:40.426Z,15.90
2018-01-12T18:12:07.163Z,16.57
2018-01-12T18:14:34.402Z,16.10
2018-01-12T18:17:01.123Z,15.23
2018-01-12T18:19:27.883Z,16.87
2018-01-12T18:21:54.565Z,15.80
2018-01-12T18:24:21.266Z,17.20
2018-01-12T18:26:48.050Z,16.37
2018-01-12T18:29:14.773Z,17.17
2018-01-12T18:31:41.514Z,16.80
2018-01-12T18:34:08.237Z,17.27
2018-01-12T18:36:34.977Z,17.07
2018-01-12T18:39:01.701Z,16.00
2018-01-12T18:41:28.417Z,15.10
2018-01-12T18:43:55.153Z,15.60
2018-01-12T18:46:21.845Z,17.37
2018-01-12T18:48:48.549Z,16.50
2018-01-12T18:51:15.292Z,15.03
2018-01-12T18:53:42.039Z,15.00
2018-01-12T18:56:08.734Z,15.70
2018-01-12T18:58:35.552Z,16.00
2018-01-12T19:01:02.288Z,16.80
2018-01-12T19:03:28.984Z,16.07
2018-01-12T19:05:55.710Z,17.80
2018-01-12T19:08:22.509Z,15.67
2018-01-12T19:10:49.238Z,16.50
2018-01-12T19:13:16.024Z,16.67
2018-01-12T19:15:42.761Z,16.03
2018-01-12T19:18:09.486Z,15.97
2018-01-12T19:20:36.236Z,16.07
2018-01-12T19:23:02.978Z,17.17
2018-01-12T19:25:29.753Z,16.33
2018-01-12T19:27:56.493Z,17.57
2018-01-12T19:30:23.191Z,17.77
2018-01-12T19:32:50.553Z,19.40
2018-01-12T19:35:17.426Z,16.50
2018-01-12T19:37:44.140Z,18.77
2018-01-12T19:40:11.197Z,17.47
2018-01-12T19:42:37.901Z,18.10
2018-01-12T19:45:05.575Z,17.60
2018-01-12T19:47:32.374Z,18.80
2018-01-12T19:49:59.184Z,16.33
2018-01-12T19:52:25.892Z,18.17
2018-01-12T19:54:52.616Z,15.20
2018-01-12T19:57:19.366Z,16.27
2018-01-12T19:59:46.104Z,17.83
2018-01-12T20:02:12.889Z,16.70
2018-01-12T20:04:39.664Z,16.60
2018-01-12T20:07:06.350Z,15.93
2018-01-12T20:09:33.078Z,17.10
2018-01-12T20:11:59.803Z,16.90
2018-01-12T20:14:26.610Z,16.83
2018-01-12T20:16:53.504Z,16.73
2018-01-12T20:19:20.269Z,17.80
2018-01-12T20:21:46.976Z,16.30
2018-01-12T20:24:13.806Z,16.27
2018-01-12T20:26:40.575Z,16.53
2018-01-12T20:29:07.312Z,18.27
2018-01-12T20:31:35.032Z,16.97
2018-01-12T20:34:01.886Z,17.17
2018-01-12T20:36:28.610Z,17.47
2018-01-12T20:38:55.596Z,17.73
2018-01-12T20:41:22.332Z,16.93
2018-01-12T20:43:49.117Z,17.00
2018-01-12T20:46:15.867Z,17.13
2018-01-12T20:48:42.565Z,17.80
2018-01-12T20:51:09.384Z,17.90
2018-01-12T20:53:36.147Z,17.67
2018-01-12T20:56:02.895Z,16.80
2018-01-12T20:58:29.602Z,17.20
2018-01-12T21:00:56.532Z,17.47
2018-01-12T21:03:23.336Z,17.80
2018-01-12T21:05:50.088Z,16.83
2018-01-12T21:08:16.839Z,18.30
2018-01-12T21:10:43.548Z,19.77
2018-01-12T21:13:10.393Z,16.90
2018-01-12T21:15:37.127Z,17.73
2018-01-12T21:18:03.854Z,18.80
2018-01-12T21:20:30.604Z,17.50
2018-01-12T21:22:57.366Z,17.33
2018-01-12T21:25:24.097Z,17.80
2018-01-12T21:27:50.832Z,17.80
2018-01-12T21:30:17.522Z,18.13
2018-01-12T21:32:44.452Z,16.77
2018-01-12T21:35:11.169Z,17.47
2018-01-12T21:37:37.880Z,17.03
2018-01-12T21:40:04.648Z,16.60
2018-01-12T21:42:31.344Z,17.93
2018-01-12T21:44:58.083Z,17.60
2018-01-12T21:47:24.835Z,17.97
2018-01-12T21:49:51.562Z,16.73
2018-01-12T21:52:18.248Z,16.90
2018-01-12T21:54:44.989Z,15.27
2018-01-12T21:57:11.702Z,16.83
2018-01-12T21:59:38.541Z,16.83
2018-01-12T22:02:06.209Z,17.57
2018-01-12T22:04:32.912Z,17.10
2018-01-12T22:06:59.651Z,18.00
2018-01-12T22:09:26.347Z,17.30
2018-01-12T22:11:53.124Z,17.17
2018-01-12T22:14:19.903Z,18.80
2018-01-12T22:16:46.994Z,18.13
2018-01-12T22:19:13.718Z,18.23
2018-01-12T22:21:40.470Z,17.17
2018-01-12T22:24:07.293Z,16.10
2018-01-12T22:26:34.325Z,18.67
2018-01-12T22:29:01.275Z,15.83
2018-01-12T22:31:28.034Z,15.80
2018-01-12T22:33:54.754Z,17.33
2018-01-12T22:36:21.516Z,15.47
2018-01-12T22:38:48.272Z,15.60
2018-01-12T22:41:14.983Z,17.40
2018-01-12T22:43:41.684Z,16.60
2018-01-12T22:46:08.434Z,15.67
2018-01-12T22:48:35.186Z,16.93
2018-01-12T22:51:01.912Z,15.43
2018-01-12T22:53:28.655Z,17.53
2018-01-12T22:55:55.431Z,15.40
2018-01-12T22:58:22.208Z,16.27
2018-01-12T23:00:48.923Z,15.70
2018-01-12T23:03:15.624Z,16.60
2018-01-12T23:05:42.375Z,17.03
2018-01-12T23:08:09.093Z,15.80
2018-01-12T23:10:35.843Z,17.10
2018-01-12T23:13:02.577Z,16.07
2018-01-12T23:15:29.274Z,16.27
2018-01-12T23:17:56.046Z,15.93
2018-01-12T23:20:22.760Z,16.83
2018-01-12T23:22:49.487Z,17.80
2018-01-12T23:25:16.218Z,17.13
2018-01-12T23:27:42.921Z,15.13
2018-01-12T23:30:09.606Z,17.73
2018-01-12T23:32:36.356Z,16.53
2018-01-12T23:35:03.119Z,16.83
2018-01-12T23:37:29.825Z,15.10
2018-01-12T23:39:56.568Z,16.83
2018-01-12T23:42:23.274Z,16.70
2018-01-12T23:44:49.982Z,16.97
2018-01-12T23:47:16.696Z,16.43
2018-01-12T23:49:43.428Z,16.20
2018-01-12T23:52:10.192Z,16.50
2018-01-12T23:54:36.874Z,16.70
2018-01-12T23:57:03.572Z,15.90
2018-01-12T23:59:30.262Z,15.40
